Lake Sherwood, California
Current Conditions -  °F | °C
As of 2:55 PM on Saturday 25 Oct 2014 (Local Time) from KCMA Reporting Station
Light Rain Light Rain  
Wind Chill: 74°   Ceiling: Unl
Heat Index: 74°   Visibility: 10mi
Dew Point: 58°   Wind: 21mph
Humidity: 57%   Direction: 260°W
Pressure: 30.03"   Gusts: 28mph
Location:  34.1434°N, 118.876°W
Report Text: KCMA 252155Z 26018G24KT 10SM -RA CLR 23/14 A3003 RMK AO2 RAB48 SLP176 P0000 T02330144
Loading
Personal Weather Stations






























Interactive Weather Map
Tropical Storm Tracking
New forecast layout! Learn more

10-Day Weather Forecast

Advertisements
Track Severe Weather on mobile